Time;durP1;ratioP1;P1;durP2;ratioP2;P2;SDS_P1;SDS_P2;PMS_P1;PMS_P2;Temp;Humidity;BMP_temperature;BMP_pressure;BME280_temperature;BME280_humidity;BME280_pressure;Samples;Min_cycle;Max_cycle;Signal;HPM_P1;HPM_P2
2021/03/25 00:00:26;;;;;;;51.90;33.70;;;5.10;99.90;;;;;;4988720;28;20038;-75
2021/03/25 00:02:54;;;;;;;51.33;33.10;;;5.00;99.90;;;;;;4986475;28;20045;-74
2021/03/25 00:05:21;;;;;;;52.97;34.33;;;5.00;99.90;;;;;;4986289;28;20022;-75
2021/03/25 00:07:47;;;;;;;55.90;35.90;;;4.90;99.90;;;;;;4989865;28;20589;-75
2021/03/25 00:10:18;;;;;;;55.17;34.22;;;4.90;99.90;;;;;;4989397;28;20025;-75
2021/03/25 00:12:44;;;;;;;55.03;33.42;;;4.90;99.90;;;;;;4988033;28;20041;-73
2021/03/25 00:15:11;;;;;;;53.75;35.10;;;4.80;99.90;;;;;;4982479;28;20026;-73
2021/03/25 00:17:36;;;;;;;52.88;33.80;;;4.80;99.90;;;;;;4992499;28;20732;-75
2021/03/25 00:20:09;;;;;;;58.05;34.00;;;4.70;99.90;;;;;;4990434;28;20105;-74
2021/03/25 00:22:34;;;;;;;51.47;33.60;;;4.70;99.90;;;;;;4983830;28;20167;-74
2021/03/25 00:25:00;;;;;;;54.63;36.20;;;4.70;99.90;;;;;;4984683;28;20161;-74
2021/03/25 00:27:26;;;;;;;55.00;36.17;;;4.60;99.90;;;;;;4994133;28;20034;-74
2021/03/25 00:29:51;;;;;;;61.83;35.50;;;4.60;99.90;;;;;;4997022;28;20045;-75
2021/03/25 00:32:17;;;;;;;62.28;36.08;;;4.60;99.90;;;;;;4991758;28;20026;-75
2021/03/25 00:34:43;;;;;;;62.00;38.00;;;4.50;99.90;;;;;;4988506;28;20031;-74
2021/03/25 00:37:08;;;;;;;53.55;35.40;;;4.50;99.90;;;;;;4981146;28;20033;-74
2021/03/25 00:39:34;;;;;;;52.83;34.22;;;4.40;99.90;;;;;;4984671;28;20034;-76
2021/03/25 00:41:59;;;;;;;52.78;34.15;;;4.40;99.90;;;;;;4985706;28;20038;-75
2021/03/25 00:44:25;;;;;;;61.40;37.97;;;4.40;99.90;;;;;;4985920;28;20109;-73
2021/03/25 00:46:50;;;;;;;57.45;36.50;;;4.30;99.90;;;;;;4985423;28;20057;-75
2021/03/25 00:49:16;;;;;;;63.28;36.72;;;4.30;99.90;;;;;;4986823;28;20090;-73
2021/03/25 00:51:41;;;;;;;57.78;34.05;;;4.20;99.90;;;;;;4986710;28;20052;-75
2021/03/25 00:54:07;;;;;;;61.28;36.53;;;4.20;99.90;;;;;;4986526;28;20660;-73
2021/03/25 00:56:32;;;;;;;62.78;37.60;;;4.20;99.90;;;;;;4986542;28;20117;-74
2021/03/25 00:58:58;;;;;;;57.88;36.65;;;4.10;99.90;;;;;;4985046;28;20087;-75
2021/03/25 01:01:25;;;;;;;60.47;36.55;;;4.10;99.90;;;;;;4986549;28;20579;-74
2021/03/25 01:03:50;;;;;;;62.50;38.72;;;4.10;99.90;;;;;;4986898;28;20027;-72
2021/03/25 01:06:16;;;;;;;58.22;37.28;;;4.00;99.90;;;;;;4986743;28;20033;-73
2021/03/25 01:08:41;;;;;;;64.07;39.03;;;4.00;99.90;;;;;;4986347;28;20565;-75
2021/03/25 01:11:20;;;;;;;68.82;41.83;;;4.00;99.90;;;;;;4986400;28;20036;-75
2021/03/25 01:13:56;;;;;;;65.00;40.63;;;3.90;99.90;;;;;;4985978;28;20075;-73
2021/03/25 01:16:32;;;;;;;75.15;43.60;;;3.90;99.90;;;;;;4986392;28;20030;-75
2021/03/25 01:18:59;;;;;;;63.17;37.33;;;3.90;99.90;;;;;;4986237;28;20401;-74
2021/03/25 01:21:26;;;;;;;67.13;41.55;;;3.90;99.90;;;;;;4984887;28;20507;-76
2021/03/25 01:23:53;;;;;;;69.35;40.40;;;3.90;99.90;;;;;;4986201;28;20023;-74
2021/03/25 01:26:18;;;;;;;70.07;39.38;;;3.80;99.90;;;;;;4986092;28;20033;-73
2021/03/25 01:28:44;;;;;;;64.07;37.78;;;3.80;99.90;;;;;;4986491;28;20026;-73
2021/03/25 01:31:09;;;;;;;69.25;39.63;;;3.80;99.90;;;;;;4985183;28;20018;-74
2021/03/25 01:33:35;;;;;;;63.90;38.75;;;3.80;99.90;;;;;;4985219;28;20027;-75
2021/03/25 01:36:00;;;;;;;64.38;37.50;;;3.70;99.90;;;;;;4986156;28;20026;-73
2021/03/25 01:38:26;;;;;;;63.17;36.58;;;3.80;99.90;;;;;;4984648;28;20396;-73
2021/03/25 01:40:59;;;;;;;63.78;37.42;;;3.80;99.90;;;;;;4984471;28;20268;-73
2021/03/25 01:43:37;;;;;;;65.25;35.30;;;3.80;99.90;;;;;;4984431;28;20030;-73
2021/03/25 01:46:24;;;;;;;65.65;39.42;;;3.80;99.90;;;;;;4984778;28;20030;-74
2021/03/25 01:48:55;;;;;;;59.67;35.42;;;3.80;99.90;;;;;;4984523;28;20019;-73
2021/03/25 01:51:41;;;;;;;63.35;38.70;;;3.90;99.90;;;;;;4984476;28;20029;-73
2021/03/25 01:54:13;;;;;;;69.57;39.27;;;3.90;99.90;;;;;;5085868;28;20053;-76
2021/03/25 01:57:08;;;;;;;60.25;35.47;;;3.90;99.90;;;;;;5029823;28;20147;-73
2021/03/25 02:00:02;;;;;;;72.03;38.58;;;3.90;99.90;;;;;;4987672;28;20489;-74
2021/03/25 02:02:33;;;;;;;57.90;37.38;;;4.00;99.90;;;;;;4973520;28;20041;-74
2021/03/25 02:05:21;;;;;;;63.85;37.70;;;4.00;99.90;;;;;;4988674;28;20079;-73
2021/03/25 02:08:05;;;;;;;55.30;34.47;;;4.00;99.90;;;;;;4989144;28;20084;-74
2021/03/25 02:10:46;;;;;;;61.30;36.33;;;4.00;99.90;;;;;;4967965;28;20037;-74
2021/03/25 02:13:32;;;;;;;58.05;36.35;;;4.10;99.90;;;;;;4969009;28;20113;-75
2021/03/25 02:16:25;;;;;;;63.03;36.83;;;4.10;99.90;;;;;;4969464;28;20023;-74
2021/03/25 02:18:53;;;;;;;56.90;37.33;;;4.10;99.90;;;;;;4972836;28;20043;-73
2021/03/25 02:21:28;;;;;;;62.83;37.30;;;4.10;99.90;;;;;;4969337;28;20062;-72
2021/03/25 02:24:31;;;;;;;66.28;38.30;;;4.20;99.90;;;;;;4968928;28;20026;-74
2021/03/25 02:27:24;;;;;;;62.88;38.47;;;4.20;99.90;;;;;;4969362;28;20031;-73
2021/03/25 02:30:09;;;;;;;62.25;37.70;;;4.20;99.90;;;;;;4978015;28;20125;-73
2021/03/25 02:32:45;;;;;;;66.60;39.92;;;4.20;99.90;;;;;;5091789;28;20027;-75
2021/03/25 02:35:35;;;;;;;;;;;4.30;99.90;;;;;;5090865;28;20111;-74
2021/03/25 02:38:05;;;;;;;64.43;37.60;;;4.30;99.90;;;;;;5092003;28;19908;-76
2021/03/25 02:40:46;;;;;;;62.78;38.60;;;4.30;99.90;;;;;;5092034;28;20395;-74
2021/03/25 02:43:20;;;;;;;64.80;37.70;;;4.40;99.90;;;;;;5020826;28;20492;-74
2021/03/25 02:45:54;;;;;;;63.75;38.83;;;4.40;99.90;;;;;;4987650;28;20023;-72
2021/03/25 02:48:22;;;;;;;69.40;40.47;;;4.40;99.90;;;;;;4987431;28;20023;-72
2021/03/25 02:50:54;;;;;;;69.57;42.13;;;4.50;99.90;;;;;;5091147;28;20026;-73
2021/03/25 02:53:32;;;;;;;69.30;42.65;;;4.50;99.90;;;;;;5090893;28;20077;-73
2021/03/25 02:56:12;;;;;;;67.95;40.65;;;4.60;99.90;;;;;;5092057;28;20028;-73
2021/03/25 02:58:39;;;;;;;70.55;41.45;;;4.60;99.90;;;;;;5091798;28;20024;-73
2021/03/25 03:01:09;;;;;;;66.13;40.45;;;4.70;99.90;;;;;;5091476;28;20024;-74
2021/03/25 03:03:41;;;;;;;61.70;39.53;;;4.70;99.90;;;;;;5025614;28;20057;-76
2021/03/25 03:06:14;;;;;;;66.00;40.58;;;4.70;99.90;;;;;;4987503;28;20541;-76
2021/03/25 03:08:43;;;;;;;71.50;40.08;;;4.80;99.90;;;;;;4988602;28;20026;-73
2021/03/25 03:11:11;;;;;;;70.05;39.10;;;4.80;99.90;;;;;;4988121;28;20034;-76
2021/03/25 03:13:43;;;;;;;66.95;40.45;;;4.80;99.90;;;;;;4987854;28;20749;-76
2021/03/25 03:16:15;;;;;;;65.65;39.60;;;4.80;99.90;;;;;;4987990;28;20114;-73
2021/03/25 03:18:51;;;;;;;64.60;41.17;;;4.90;99.90;;;;;;5060318;28;20075;-77
2021/03/25 03:21:23;;;;;;;70.53;40.67;;;4.90;99.90;;;;;;4985839;28;20045;-76
2021/03/25 03:23:50;;;;;;;68.85;40.67;;;4.90;99.90;;;;;;5015136;28;20032;-73
2021/03/25 03:26:23;;;;;;;65.07;39.67;;;5.00;99.90;;;;;;5090430;28;20031;-74
2021/03/25 03:28:55;;;;;;;68.82;38.47;;;5.00;99.90;;;;;;5088659;28;20504;-73
2021/03/25 03:31:25;;;;;;;69.20;40.13;;;5.00;99.90;;;;;;5088759;28;20028;-73
2021/03/25 03:33:59;;;;;;;66.25;40.08;;;5.00;99.90;;;;;;5090250;28;20055;-72
2021/03/25 03:36:25;;;;;;;68.53;40.35;;;5.00;99.90;;;;;;5032375;28;20027;-73
2021/03/25 03:38:56;;;;;;;63.55;39.28;;;5.00;99.90;;;;;;5001503;28;20024;-73
2021/03/25 03:41:26;;;;;;;61.50;37.75;;;5.10;99.90;;;;;;5090233;28;20081;-72
2021/03/25 03:43:53;;;;;;;64.35;38.58;;;5.10;99.90;;;;;;5066468;28;20038;-74
2021/03/25 03:46:26;;;;;;;64.30;39.22;;;5.10;99.90;;;;;;4987539;28;20480;-74
2021/03/25 03:49:15;;;;;;;64.20;39.45;;;5.10;99.90;;;;;;4987688;28;20114;-74
2021/03/25 03:52:03;;;;;;;68.22;40.75;;;5.10;99.90;;;;;;4987518;28;20033;-73
2021/03/25 03:54:29;;;;;;;65.38;39.13;;;5.20;99.90;;;;;;4986132;28;20385;-73
2021/03/25 03:57:04;;;;;;;59.10;36.45;;;5.20;99.90;;;;;;4982987;28;20106;-73
2021/03/25 03:59:50;;;;;;;65.35;40.20;;;5.20;99.90;;;;;;4984476;28;20034;-73
2021/03/25 04:02:37;;;;;;;62.70;37.65;;;5.20;99.90;;;;;;5020901;28;20117;-72
2021/03/25 04:05:07;;;;;;;64.72;38.05;;;5.20;99.90;;;;;;5020597;28;20058;-73
2021/03/25 04:07:36;;;;;;;67.55;39.47;;;5.20;99.90;;;;;;4984823;28;20412;-75
2021/03/25 04:10:21;;;;;;;70.43;39.53;;;5.20;99.90;;;;;;4986017;28;20038;-74
2021/03/25 04:12:53;;;;;;;62.60;38.78;;;5.20;99.90;;;;;;4987370;28;20057;-73
2021/03/25 04:15:22;;;;;;;63.72;36.53;;;5.30;99.90;;;;;;4987657;28;20037;-74
2021/03/25 04:17:58;;;;;;;59.47;38.15;;;5.30;99.90;;;;;;4987116;28;20025;-73
2021/03/25 04:20:25;;;;;;;59.95;38.08;;;5.30;99.90;;;;;;4976803;28;20031;-72
2021/03/25 04:22:57;;;;;;;67.65;37.75;;;5.30;99.90;;;;;;4966891;28;20126;-73
2021/03/25 04:25:39;;;;;;;63.05;37.95;;;5.30;99.90;;;;;;4987498;28;20048;-74
2021/03/25 04:28:16;;;;;;;52.47;34.90;;;5.40;99.90;;;;;;5065771;28;20039;-74
2021/03/25 04:30:50;;;;;;;61.78;36.85;;;5.40;99.90;;;;;;5044141;28;20546;-73
2021/03/25 04:33:18;;;;;;;66.20;35.72;;;5.40;99.90;;;;;;5002849;28;20105;-74
2021/03/25 04:35:45;;;;;;;60.40;35.60;;;5.40;99.90;;;;;;5004754;28;20103;-73
2021/03/25 04:38:21;;;;;;;56.38;36.35;;;5.40;99.90;;;;;;5006494;28;20036;-74
2021/03/25 04:40:47;;;;;;;62.50;38.00;;;5.40;99.90;;;;;;4997293;28;20026;-73
2021/03/25 04:43:17;;;;;;;61.45;35.40;;;5.40;99.90;;;;;;4982131;28;20019;-76
2021/03/25 04:45:47;;;;;;;67.63;37.28;;;5.50;99.90;;;;;;4985778;28;20022;-74
2021/03/25 04:48:17;;;;;;;59.95;35.63;;;5.50;99.90;;;;;;4967737;28;20027;-76
2021/03/25 04:50:54;;;;;;;55.78;34.13;;;5.50;99.90;;;;;;4967618;28;20405;-73
2021/03/25 04:53:28;;;;;;;55.47;35.08;;;5.50;99.90;;;;;;4966299;28;20478;-73
2021/03/25 04:55:53;;;;;;;55.80;34.65;;;5.50;99.90;;;;;;4967290;28;20457;-75
2021/03/25 04:58:29;;;;;;;59.33;35.75;;;5.50;99.90;;;;;;4966372;28;20030;-74
2021/03/25 05:01:05;;;;;;;57.10;34.03;;;5.50;99.90;;;;;;4979598;28;20570;-74
2021/03/25 05:03:31;;;;;;;61.50;37.30;;;5.50;99.90;;;;;;4980716;28;20023;-74
2021/03/25 05:05:57;;;;;;;62.60;36.40;;;5.60;99.90;;;;;;4985868;28;20035;-73
2021/03/25 05:08:28;;;;;;;58.20;35.28;;;5.60;99.90;;;;;;4985365;28;20027;-75
2021/03/25 05:10:59;;;;;;;66.13;37.65;;;5.60;99.90;;;;;;4985773;28;20075;-73
2021/03/25 05:13:37;;;;;;;64.97;37.97;;;5.60;99.90;;;;;;4985523;28;20104;-74
2021/03/25 05:16:15;;;;;;;61.92;36.85;;;5.60;99.90;;;;;;4985481;28;20048;-75
2021/03/25 05:18:48;;;;;;;59.38;35.88;;;5.70;99.90;;;;;;4986782;28;20032;-73
2021/03/25 05:21:24;;;;;;;60.33;35.40;;;5.70;99.90;;;;;;4989795;28;20480;-73
2021/03/25 05:24:08;;;;;;;59.67;36.03;;;5.80;99.90;;;;;;4985217;28;20022;-75
2021/03/25 05:26:47;;;;;;;59.55;34.92;;;5.80;99.90;;;;;;4985427;28;20266;-77
2021/03/25 05:29:14;;;;;;;61.03;36.13;;;5.80;99.90;;;;;;4985663;28;20109;-74
2021/03/25 05:31:42;;;;;;;58.25;33.78;;;5.80;99.90;;;;;;5000263;28;20045;-74
2021/03/25 05:34:08;;;;;;;61.28;33.58;;;5.80;99.90;;;;;;5032820;28;20032;-73
2021/03/25 05:36:34;;;;;;;53.75;32.05;;;5.80;99.90;;;;;;5088373;28;20025;-75
2021/03/25 05:39:00;;;;;;;54.20;30.27;;;5.80;99.90;;;;;;5088848;28;20040;-74
2021/03/25 05:41:48;;;;;;;55.95;34.58;;;5.80;99.90;;;;;;5019735;28;20031;-76
2021/03/25 05:44:34;;;;;;;66.75;36.53;;;5.80;99.90;;;;;;4985799;28;20030;-76
2021/03/25 05:47:06;;;;;;;58.17;33.13;;;5.90;99.90;;;;;;5057954;28;20385;-74
2021/03/25 05:49:37;;;;;;;56.75;31.98;;;5.90;99.90;;;;;;4995676;28;20160;-73
2021/03/25 05:52:28;;;;;;;57.08;33.03;;;5.90;99.90;;;;;;4989292;28;20026;-73
2021/03/25 05:54:59;;;;;;;55.70;32.28;;;6.00;99.90;;;;;;4985777;28;20418;-76
2021/03/25 05:57:43;;;;;;;50.13;29.45;;;6.00;99.90;;;;;;4985887;28;20030;-73
2021/03/25 06:00:34;;;;;;;53.70;31.35;;;6.00;99.90;;;;;;5054276;28;20032;-74
2021/03/25 06:03:10;;;;;;;53.38;30.83;;;6.10;99.90;;;;;;5018072;28;20470;-74
2021/03/25 06:05:36;;;;;;;54.85;29.83;;;6.10;99.90;;;;;;5073667;28;20026;-73
2021/03/25 06:08:47;;;;;;;51.92;27.95;;;6.10;99.90;;;;;;5047066;28;20038;-74
2021/03/25 06:11:32;;;;;;;45.50;27.50;;;6.10;99.90;;;;;;5065286;28;20027;-77
2021/03/25 06:14:10;;;;;;;46.67;27.23;;;6.20;99.90;;;;;;5030755;28;20022;-74
2021/03/25 06:16:47;;;;;;;43.40;26.58;;;6.20;99.90;;;;;;4968273;28;20022;-74
2021/03/25 06:19:31;;;;;;;53.00;29.65;;;6.20;99.90;;;;;;4990234;28;20030;-76
2021/03/25 06:22:28;;;;;;;48.97;27.80;;;6.20;99.90;;;;;;4971386;28;20026;-76
2021/03/25 06:25:23;;;;;;;46.50;29.02;;;6.20;99.90;;;;;;4985231;28;20027;-74
2021/03/25 06:28:14;;;;;;;50.95;29.25;;;6.30;99.90;;;;;;4983830;28;20038;-76
2021/03/25 06:30:55;;;;;;;51.45;28.15;;;6.30;99.90;;;;;;4998190;28;20397;-75
2021/03/25 06:33:32;;;;;;;45.85;27.42;;;6.30;99.90;;;;;;4998868;28;20472;-74
2021/03/25 06:36:09;;;;;;;49.00;27.58;;;6.30;99.90;;;;;;5034678;28;20051;-75
2021/03/25 06:38:38;;;;;;;48.53;26.52;;;6.40;99.90;;;;;;5056561;28;20068;-74
2021/03/25 06:41:20;;;;;;;49.25;26.60;;;6.40;99.90;;;;;;4987963;28;20026;-77
2021/03/25 06:43:53;;;;;;;46.63;25.30;;;6.40;99.90;;;;;;4987528;28;20400;-74
2021/03/25 06:46:28;;;;;;;42.15;26.67;;;6.40;99.90;;;;;;4983930;28;20058;-76
2021/03/25 06:49:05;;;;;;;45.00;26.80;;;6.40;99.90;;;;;;4992245;28;20022;-75
2021/03/25 06:51:34;;;;;;;48.60;28.00;;;6.50;99.90;;;;;;4989158;28;20067;-74
2021/03/25 06:54:20;;;;;;;42.30;25.70;;;6.60;99.90;;;;;;4988539;28;20057;-77
2021/03/25 06:56:53;;;;;;;;;;;6.70;99.90;;;;;;4983256;28;20523;-75
2021/03/25 06:59:35;;;;;;;44.38;24.13;;;6.70;99.90;;;;;;4987392;28;19910;-74
2021/03/25 07:02:25;;;;;;;44.55;25.90;;;6.80;99.90;;;;;;5000686;28;20018;-74
2021/03/25 07:04:53;;;;;;;47.08;26.75;;;6.80;99.90;;;;;;5066389;28;20034;-76
2021/03/25 07:07:38;;;;;;;44.88;25.77;;;6.80;99.90;;;;;;4999484;28;20553;-75
2021/03/25 07:10:06;;;;;;;48.65;27.83;;;6.90;99.90;;;;;;5010400;28;20502;-75
2021/03/25 07:12:36;;;;;;;52.22;27.88;;;6.90;99.90;;;;;;4986544;28;20044;-75
2021/03/25 07:15:06;;;;;;;44.15;26.10;;;7.00;99.90;;;;;;5059442;28;20526;-76
2021/03/25 07:17:37;;;;;;;41.38;25.30;;;7.10;99.90;;;;;;4970831;28;20511;-74
2021/03/25 07:20:15;;;;;;;42.08;24.08;;;7.10;99.90;;;;;;4978362;28;20030;-76
2021/03/25 07:22:41;;;;;;;42.72;24.00;;;7.10;99.90;;;;;;4984218;28;20057;-75
2021/03/25 07:25:19;;;;;;;42.78;21.98;;;7.20;99.90;;;;;;4994659;28;20050;-76
2021/03/25 07:27:45;;;;;;;43.13;23.42;;;7.20;99.90;;;;;;4987629;28;20122;-74
2021/03/25 07:30:15;;;;;;;33.55;20.63;;;7.30;99.90;;;;;;4984118;28;20046;-74
2021/03/25 07:32:52;;;;;;;37.15;22.70;;;7.30;99.90;;;;;;4978566;28;20018;-75
2021/03/25 07:35:38;;;;;;;46.20;24.83;;;7.30;99.90;;;;;;4992605;28;20148;-78
2021/03/25 07:38:21;;;;;;;49.63;25.33;;;7.40;99.90;;;;;;4985945;28;20026;-78
2021/03/25 07:41:00;;;;;;;43.53;26.80;;;7.40;99.90;;;;;;4984365;28;20035;-74
2021/03/25 07:43:28;;;;;;;41.47;24.95;;;7.50;99.90;;;;;;4983636;28;20034;-74
2021/03/25 07:46:30;;;;;;;43.17;26.45;;;7.60;99.90;;;;;;4990979;28;20018;-74
2021/03/25 07:49:10;;;;;;;44.55;26.15;;;7.60;99.90;;;;;;4987360;28;20014;-73
2021/03/25 07:51:49;;;;;;;39.38;23.08;;;7.70;99.90;;;;;;4985598;28;20607;-74
2021/03/25 07:54:33;;;;;;;39.70;23.10;;;7.80;99.90;;;;;;4983901;28;20022;-73
2021/03/25 07:57:11;;;;;;;34.35;21.75;;;7.90;99.90;;;;;;4995848;28;20129;-76
2021/03/25 07:59:44;;;;;;;31.60;20.33;;;8.00;99.90;;;;;;5010779;28;20058;-73
2021/03/25 08:02:28;;;;;;;29.92;21.08;;;8.00;99.90;;;;;;4978023;28;20159;-73
2021/03/25 08:04:55;;;;;;;29.98;17.88;;;8.00;99.90;;;;;;4986872;28;20473;-74
2021/03/25 08:07:22;;;;;;;30.55;19.17;;;8.00;99.90;;;;;;5002540;28;20061;-75
2021/03/25 08:09:55;;;;;;;34.63;21.13;;;8.00;99.90;;;;;;4978835;28;20034;-73
2021/03/25 08:12:31;;;;;;;29.23;20.02;;;8.10;99.90;;;;;;5047947;28;20073;-74
2021/03/25 08:15:28;;;;;;;33.80;18.80;;;8.10;99.90;;;;;;5016076;28;20027;-74
2021/03/25 08:18:20;;;;;;;37.22;21.05;;;8.20;99.90;;;;;;4988991;28;20540;-74
2021/03/25 08:21:13;;;;;;;33.35;21.38;;;8.20;99.90;;;;;;5065169;28;20028;-73
2021/03/25 08:23:53;;;;;;;35.05;22.33;;;8.20;99.90;;;;;;5016869;28;20473;-73
2021/03/25 08:26:42;;;;;;;36.10;23.23;;;8.20;99.90;;;;;;5057683;28;20110;-76
2021/03/25 08:29:07;;;;;;;40.30;25.00;;;8.40;99.90;;;;;;5033395;28;20440;-75
2021/03/25 08:31:44;;;;;;;37.40;23.23;;;8.60;99.90;;;;;;4985720;28;20019;-73
2021/03/25 08:34:19;;;;;;;38.50;23.80;;;8.70;99.90;;;;;;4986242;28;20030;-74
2021/03/25 08:37:08;;;;;;;43.97;24.55;;;8.80;99.90;;;;;;4982212;28;20116;-73
2021/03/25 08:39:43;;;;;;;40.20;25.23;;;8.70;99.90;;;;;;5045913;28;20402;-73
2021/03/25 08:42:29;;;;;;;39.35;25.15;;;8.80;99.90;;;;;;4986240;28;20057;-73
2021/03/25 08:45:21;;;;;;;43.50;24.70;;;8.80;99.90;;;;;;4985234;28;20026;-73
2021/03/25 08:48:05;;;;;;;41.00;24.60;;;8.80;99.90;;;;;;5025848;28;20016;-73
2021/03/25 08:50:38;;;;;;;42.00;24.25;;;8.80;99.90;;;;;;5012213;28;20076;-73
2021/03/25 08:53:21;;;;;;;42.08;23.95;;;8.90;99.90;;;;;;5011981;28;20029;-73
2021/03/25 08:55:49;;;;;;;35.17;23.38;;;9.10;99.90;;;;;;5002945;28;20059;-73
2021/03/25 08:58:21;;;;;;;39.42;24.35;;;9.30;99.90;;;;;;5004836;28;20587;-74
2021/03/25 09:00:50;;;;;;;35.92;21.60;;;9.60;99.90;;;;;;4985999;28;20027;-75
2021/03/25 09:03:23;;;;;;;41.53;24.98;;;10.00;99.90;;;;;;4974125;28;20704;-75
2021/03/25 09:06:14;;;;;;;39.80;25.17;;;10.20;99.90;;;;;;4985086;28;20046;-73
2021/03/25 09:08:41;;;;;;;35.35;22.40;;;10.50;99.90;;;;;;4978694;28;20027;-74
2021/03/25 09:11:11;;;;;;;35.40;23.58;;;10.50;99.90;;;;;;4980136;28;20023;-73
2021/03/25 09:13:47;;;;;;;37.08;23.52;;;10.70;99.90;;;;;;4975545;28;20050;-73
2021/03/25 09:16:21;;;;;;;32.72;20.45;;;10.80;99.90;;;;;;4981290;28;20091;-73
2021/03/25 09:18:48;;;;;;;31.60;21.38;;;10.80;99.90;;;;;;4977960;28;20042;-74
2021/03/25 09:21:24;;;;;;;34.40;21.65;;;10.90;99.90;;;;;;4980307;28;20515;-75
2021/03/25 09:23:59;;;;;;;33.28;22.10;;;11.00;99.90;;;;;;5005177;28;20030;-73
2021/03/25 09:26:24;;;;;;;32.60;22.60;;;11.10;99.90;;;;;;4996098;28;20054;-74
2021/03/25 09:28:53;;;;;;;34.75;22.30;;;11.20;99.90;;;;;;4984478;28;20058;-73
2021/03/25 09:31:20;;;;;;;33.53;21.42;;;11.40;99.90;;;;;;4980268;28;20377;-75
2021/03/25 09:33:48;;;;;;;32.65;21.75;;;11.50;99.90;;;;;;4980434;28;20026;-73
2021/03/25 09:36:19;;;;;;;35.17;22.92;;;11.60;99.90;;;;;;4981354;28;20061;-75
2021/03/25 09:38:58;;;;;;;34.97;22.40;;;11.70;99.90;;;;;;5004463;28;20033;-74
2021/03/25 09:41:30;;;;;;;37.33;23.70;;;11.90;99.90;;;;;;5004596;28;20018;-74
2021/03/25 09:44:04;;;;;;;36.13;22.73;;;12.00;99.90;;;;;;4975335;28;20030;-74
2021/03/25 09:46:55;;;;;;;35.25;24.25;;;12.10;99.90;;;;;;4976675;28;20065;-74
2021/03/25 09:49:29;;;;;;;43.60;24.90;;;12.20;99.90;;;;;;4985089;28;20492;-74
2021/03/25 09:52:13;;;;;;;40.88;24.98;;;12.40;99.90;;;;;;4970597;28;20473;-76
2021/03/25 09:54:46;;;;;;;38.72;24.25;;;12.60;99.90;;;;;;4973626;28;20023;-74
2021/03/25 09:57:18;;;;;;;40.40;26.08;;;12.80;99.90;;;;;;4982787;28;20101;-74
2021/03/25 09:59:51;;;;;;;36.38;25.45;;;13.00;99.90;;;;;;4989855;28;20373;-74
2021/03/25 10:02:39;;;;;;;42.45;26.05;;;13.20;99.90;;;;;;4971506;28;20030;-74
2021/03/25 10:05:36;;;;;;;44.90;27.55;;;13.30;99.90;;;;;;4982834;28;20044;-75
2021/03/25 10:08:19;;;;;;;39.00;24.52;;;13.30;99.90;;;;;;4982414;28;20441;-74
2021/03/25 10:11:00;;;;;;;35.55;24.67;;;13.40;99.90;;;;;;4984804;28;20023;-74
2021/03/25 10:13:43;;;;;;;39.97;26.67;;;13.40;99.90;;;;;;4973614;28;20022;-74
2021/03/25 10:16:33;;;;;;;35.50;23.58;;;13.50;99.90;;;;;;4986215;28;20926;-74
2021/03/25 10:19:05;;;;;;;33.58;22.17;;;13.70;99.90;;;;;;5042503;28;20039;-74
2021/03/25 10:21:53;;;;;;;32.33;21.63;;;13.80;99.90;;;;;;4997607;28;20026;-75
2021/03/25 10:24:24;;;;;;;34.45;20.75;;;13.90;99.90;;;;;;4987813;28;20033;-74
2021/03/25 10:27:00;;;;;;;25.42;18.40;;;13.90;99.90;;;;;;5010465;28;20113;-74
2021/03/25 10:29:34;;;;;;;26.77;17.30;;;14.00;99.90;;;;;;4988765;28;20034;-74
2021/03/25 10:32:02;;;;;;;22.48;16.30;;;14.20;99.90;;;;;;4987331;28;20049;-74
2021/03/25 10:34:29;;;;;;;25.60;18.30;;;14.20;99.90;;;;;;4981480;28;20553;-75
2021/03/25 10:37:32;;;;;;;24.83;17.17;;;14.10;99.90;;;;;;4998119;28;20035;-74
2021/03/25 10:40:02;;;;;;;24.65;17.10;;;14.00;99.90;;;;;;5005068;28;20022;-74
2021/03/25 10:45:31;;;;;;;29.15;14.85;;;14.20;99.90;;;;;;5062884;22;20049;-58
2021/03/25 10:48:29;;;;;;;21.33;15.23;;;14.20;99.90;;;;;;5069346;28;20024;-57
2021/03/25 10:50:57;;;;;;;20.85;15.20;;;14.30;99.90;;;;;;5058400;28;20036;-58
2021/03/25 10:53:28;;;;;;;20.30;14.15;;;14.50;99.90;;;;;;5070350;28;20545;-59
2021/03/25 10:56:21;;;;;;;19.48;12.25;;;14.40;99.90;;;;;;5062540;28;20056;-58
2021/03/25 10:59:03;;;;;;;18.60;12.25;;;14.40;99.90;;;;;;5049387;28;20040;-58
2021/03/25 11:01:31;;;;;;;22.30;13.98;;;14.40;99.40;;;;;;5070296;28;20016;-59
2021/03/25 11:03:58;;;;;;;15.35;11.57;;;14.40;99.70;;;;;;5070406;28;20393;-59
2021/03/25 11:06:32;;;;;;;16.17;12.70;;;14.20;98.80;;;;;;5070147;28;20050;-58
2021/03/25 11:09:31;;;;;;;19.30;12.65;;;14.30;99.90;;;;;;5070317;28;20021;-59
2021/03/25 11:12:21;;;;;;;17.10;12.20;;;14.50;99.90;;;;;;5057949;28;20040;-59
2021/03/25 11:14:56;;;;;;;14.20;11.40;;;14.60;99.00;;;;;;5059013;28;20107;-58
2021/03/25 11:17:32;;;;;;;17.17;12.00;;;14.60;97.40;;;;;;5069370;28;20027;-58
2021/03/25 11:20:07;;;;;;;17.75;11.75;;;14.50;98.50;;;;;;5068025;28;20040;-57
2021/03/25 11:22:34;;;;;;;15.93;11.60;;;14.50;96.90;;;;;;5068851;28;20025;-56
2021/03/25 11:25:01;;;;;;;17.40;12.15;;;14.40;97.30;;;;;;5069494;28;20028;-58
2021/03/25 11:27:28;;;;;;;18.92;13.52;;;14.30;97.40;;;;;;5068348;28;20092;-59
2021/03/25 11:30:24;;;;;;;14.55;12.38;;;14.30;97.10;;;;;;5068985;28;20021;-57
2021/03/25 11:32:50;;;;;;;17.60;13.73;;;14.20;95.90;;;;;;5068029;28;20036;-56
2021/03/25 11:35:23;;;;;;;19.42;13.63;;;13.90;97.00;;;;;;5068799;28;20036;-58
2021/03/25 11:37:51;;;;;;;17.33;12.13;;;13.90;97.80;;;;;;5067864;28;20051;-57
2021/03/25 11:40:22;;;;;;;16.05;12.65;;;14.00;97.80;;;;;;5067045;28;20021;-57
2021/03/25 11:43:03;;;;;;;18.50;14.13;;;14.20;99.00;;;;;;5068406;28;20038;-56
2021/03/25 11:45:44;;;;;;;15.93;11.63;;;14.40;97.30;;;;;;5067710;28;20403;-57
2021/03/25 11:48:34;;;;;;;17.02;11.93;;;14.40;98.00;;;;;;5068798;28;20013;-56
2021/03/25 11:51:15;;;;;;;15.65;11.40;;;14.50;97.50;;;;;;5069270;28;20013;-56
2021/03/25 11:53:42;;;;;;;16.23;10.48;;;14.60;97.40;;;;;;5067647;28;20492;-57
2021/03/25 11:56:20;;;;;;;16.33;11.25;;;14.50;94.10;;;;;;5069474;28;20022;-57
2021/03/25 11:59:20;;;;;;;14.32;10.73;;;14.60;93.70;;;;;;5068195;28;20029;-56
2021/03/25 12:01:47;;;;;;;17.27;11.57;;;14.70;93.50;;;;;;5068914;28;20039;-59
2021/03/25 12:04:15;;;;;;;14.45;11.20;;;14.80;94.00;;;;;;5068608;28;20033;-57
2021/03/25 12:07:03;;;;;;;13.05;10.10;;;14.80;95.50;;;;;;5068762;28;20099;-57
2021/03/25 12:09:30;;;;;;;16.85;10.85;;;14.80;93.90;;;;;;5067249;28;20044;-59
2021/03/25 12:11:55;;;;;;;13.43;10.05;;;14.90;94.40;;;;;;5068387;28;20031;-59
2021/03/25 12:14:23;;;;;;;12.75;8.98;;;15.00;91.90;;;;;;5066868;28;20032;-58
2021/03/25 12:16:55;;;;;;;12.35;9.85;;;15.20;93.50;;;;;;5065444;28;20516;-59
2021/03/25 12:19:21;;;;;;;15.88;10.40;;;15.30;91.70;;;;;;5066132;28;20024;-56
2021/03/25 12:21:47;;;;;;;15.63;10.60;;;15.30;91.20;;;;;;5068325;28;20158;-58
2021/03/25 12:24:13;;;;;;;15.45;11.02;;;15.20;91.00;;;;;;5067945;28;20070;-58
2021/03/25 12:26:38;;;;;;;14.45;10.38;;;15.20;90.90;;;;;;5068599;28;20021;-57
2021/03/25 12:29:04;;;;;;;13.65;10.00;;;15.30;91.40;;;;;;5067867;28;20031;-57
2021/03/25 12:31:34;;;;;;;17.17;10.70;;;15.40;90.00;;;;;;5068243;28;20560;-57
2021/03/25 12:34:00;;;;;;;12.07;9.40;;;15.40;90.00;;;;;;5067020;28;20044;-57
2021/03/25 12:36:27;;;;;;;15.27;9.50;;;15.40;91.60;;;;;;5061118;28;20025;-58
2021/03/25 12:38:53;;;;;;;13.38;10.20;;;15.40;90.10;;;;;;5065017;28;20089;-59
2021/03/25 12:41:31;;;;;;;15.25;11.30;;;15.50;91.40;;;;;;5065774;28;20420;-58
2021/03/25 12:43:57;;;;;;;15.23;9.85;;;15.50;90.50;;;;;;5066734;28;20060;-56
2021/03/25 12:46:22;;;;;;;12.02;10.00;;;15.60;86.70;;;;;;5064588;28;20118;-58
2021/03/25 12:48:48;;;;;;;14.18;10.23;;;15.60;86.60;;;;;;5056751;28;20541;-58
2021/03/25 12:51:14;;;;;;;14.02;9.93;;;15.60;85.10;;;;;;5055832;28;20020;-57
2021/03/25 12:53:42;;;;;;;11.95;8.95;;;15.60;89.40;;;;;;5057249;28;20017;-59
2021/03/25 12:56:31;;;;;;;13.95;9.43;;;15.70;88.50;;;;;;5057462;28;20056;-58
2021/03/25 12:59:04;;;;;;;13.88;9.65;;;15.60;85.40;;;;;;5055723;28;20381;-58
2021/03/25 13:01:32;;;;;;;15.45;9.95;;;15.60;84.60;;;;;;5063558;28;20020;-58
2021/03/25 13:03:57;;;;;;;16.05;11.07;;;15.70;84.00;;;;;;5066422;28;20032;-58
2021/03/25 13:06:23;;;;;;;16.92;10.98;;;15.60;82.70;;;;;;5065812;28;20032;-57
2021/03/25 13:08:49;;;;;;;15.63;10.95;;;15.40;82.30;;;;;;5067143;28;20020;-59
2021/03/25 13:11:22;;;;;;;16.25;11.07;;;15.10;84.00;;;;;;5065316;28;20045;-56
2021/03/25 13:13:47;;;;;;;17.02;10.82;;;15.00;83.30;;;;;;5064873;28;20665;-59
2021/03/25 13:16:13;;;;;;;16.38;11.77;;;14.60;86.20;;;;;;5062981;28;20016;-58